sensor_id;sensor_type;location;lat;lon;timestamp;P1;durP1;ratioP1;P2;durP2;ratioP2
24857;SDS011;12935;50.782;6.074;2023-03-31T00:01:34;45.23;;;9.97;;
24857;SDS011;12935;50.782;6.074;2023-03-31T00:04:00;20.50;;;5.50;;
24857;SDS011;12935;50.782;6.074;2023-03-31T00:06:29;36.93;;;7.57;;
24857;SDS011;12935;50.782;6.074;2023-03-31T00:08:56;33.60;;;7.03;;
24857;SDS011;12935;50.782;6.074;2023-03-31T00:11:26;35.60;;;7.23;;
24857;SDS011;12935;50.782;6.074;2023-03-31T00:13:52;22.27;;;5.70;;
24857;SDS011;12935;50.782;6.074;2023-03-31T00:16:18;30.70;;;7.10;;
24857;SDS011;12935;50.782;6.074;2023-03-31T00:18:44;28.73;;;6.57;;
24857;SDS011;12935;50.782;6.074;2023-03-31T00:21:15;26.97;;;6.40;;
24857;SDS011;12935;50.782;6.074;2023-03-31T00:24:04;25.43;;;6.50;;
24857;SDS011;12935;50.782;6.074;2023-03-31T00:26:32;28.17;;;6.13;;
24857;SDS011;12935;50.782;6.074;2023-03-31T00:28:58;22.10;;;5.87;;
24857;SDS011;12935;50.782;6.074;2023-03-31T00:31:25;34.03;;;6.80;;
24857;SDS011;12935;50.782;6.074;2023-03-31T00:33:51;27.70;;;6.97;;
24857;SDS011;12935;50.782;6.074;2023-03-31T00:36:17;42.07;;;7.90;;
24857;SDS011;12935;50.782;6.074;2023-03-31T00:38:48;23.97;;;6.50;;
24857;SDS011;12935;50.782;6.074;2023-03-31T00:41:13;40.07;;;7.93;;
24857;SDS011;12935;50.782;6.074;2023-03-31T00:43:39;51.23;;;9.63;;
24857;SDS011;12935;50.782;6.074;2023-03-31T00:46:09;17.63;;;5.20;;
24857;SDS011;12935;50.782;6.074;2023-03-31T00:48:43;26.93;;;6.37;;
24857;SDS011;12935;50.782;6.074;2023-03-31T00:51:16;21.20;;;5.40;;
24857;SDS011;12935;50.782;6.074;2023-03-31T00:53:43;36.97;;;7.13;;
24857;SDS011;12935;50.782;6.074;2023-03-31T00:56:12;26.03;;;6.00;;
24857;SDS011;12935;50.782;6.074;2023-03-31T00:58:39;23.53;;;6.10;;
24857;SDS011;12935;50.782;6.074;2023-03-31T01:01:08;23.40;;;6.30;;
24857;SDS011;12935;50.782;6.074;2023-03-31T01:03:38;15.37;;;5.43;;
24857;SDS011;12935;50.782;6.074;2023-03-31T01:06:05;21.93;;;5.17;;
24857;SDS011;12935;50.782;6.074;2023-03-31T01:08:34;13.67;;;4.73;;
24857;SDS011;12935;50.782;6.074;2023-03-31T01:11:04;12.37;;;4.43;;
24857;SDS011;12935;50.782;6.074;2023-03-31T01:13:33;20.30;;;5.13;;
24857;SDS011;12935;50.782;6.074;2023-03-31T01:16:01;18.20;;;5.30;;
24857;SDS011;12935;50.782;6.074;2023-03-31T01:18:26;49.97;;;8.57;;
24857;SDS011;12935;50.782;6.074;2023-03-31T01:26:35;35.47;;;6.80;;
24857;SDS011;12935;50.782;6.074;2023-03-31T01:43:43;29.63;;;7.53;;
24857;SDS011;12935;50.782;6.074;2023-03-31T01:46:28;22.27;;;5.90;;
24857;SDS011;12935;50.782;6.074;2023-03-31T01:57:16;17.03;;;5.13;;
24857;SDS011;12935;50.782;6.074;2023-03-31T01:59:57;32.37;;;7.00;;
24857;SDS011;12935;50.782;6.074;2023-03-31T02:02:28;26.70;;;6.33;;
24857;SDS011;12935;50.782;6.074;2023-03-31T02:05:00;16.03;;;4.90;;
24857;SDS011;12935;50.782;6.074;2023-03-31T02:07:31;14.70;;;4.73;;
24857;SDS011;12935;50.782;6.074;2023-03-31T02:10:02;22.50;;;6.70;;
24857;SDS011;12935;50.782;6.074;2023-03-31T02:12:31;13.70;;;5.53;;
24857;SDS011;12935;50.782;6.074;2023-03-31T02:14:58;13.43;;;4.60;;
24857;SDS011;12935;50.782;6.074;2023-03-31T02:17:28;26.53;;;6.30;;
24857;SDS011;12935;50.782;6.074;2023-03-31T02:19:57;17.27;;;5.27;;
24857;SDS011;12935;50.782;6.074;2023-03-31T02:22:28;17.73;;;5.30;;
24857;SDS011;12935;50.782;6.074;2023-03-31T02:24:58;16.30;;;5.80;;
24857;SDS011;12935;50.782;6.074;2023-03-31T02:27:32;19.00;;;5.37;;
24857;SDS011;12935;50.782;6.074;2023-03-31T02:30:01;23.80;;;5.90;;
24857;SDS011;12935;50.782;6.074;2023-03-31T02:32:35;21.73;;;5.47;;
24857;SDS011;12935;50.782;6.074;2023-03-31T02:35:03;33.03;;;6.33;;
24857;SDS011;12935;50.782;6.074;2023-03-31T02:37:30;21.33;;;5.10;;
24857;SDS011;12935;50.782;6.074;2023-03-31T02:39:56;11.00;;;4.33;;
24857;SDS011;12935;50.782;6.074;2023-03-31T02:42:24;22.50;;;5.90;;
24857;SDS011;12935;50.782;6.074;2023-03-31T02:44:49;17.90;;;5.50;;
24857;SDS011;12935;50.782;6.074;2023-03-31T02:47:15;25.60;;;5.93;;
24857;SDS011;12935;50.782;6.074;2023-03-31T02:49:44;24.90;;;5.90;;
24857;SDS011;12935;50.782;6.074;2023-03-31T03:04:32;12.27;;;4.23;;
24857;SDS011;12935;50.782;6.074;2023-03-31T03:10:11;26.30;;;5.90;;
24857;SDS011;12935;50.782;6.074;2023-03-31T03:15:34;16.03;;;4.80;;
24857;SDS011;12935;50.782;6.074;2023-03-31T03:18:04;22.30;;;6.87;;
24857;SDS011;12935;50.782;6.074;2023-03-31T03:20:30;18.80;;;5.07;;
24857;SDS011;12935;50.782;6.074;2023-03-31T03:22:58;19.70;;;5.70;;
24857;SDS011;12935;50.782;6.074;2023-03-31T03:25:23;29.37;;;6.50;;
24857;SDS011;12935;50.782;6.074;2023-03-31T03:27:49;27.90;;;6.17;;
24857;SDS011;12935;50.782;6.074;2023-03-31T03:30:17;14.87;;;4.77;;
24857;SDS011;12935;50.782;6.074;2023-03-31T03:32:42;27.87;;;6.07;;
24857;SDS011;12935;50.782;6.074;2023-03-31T03:35:08;24.90;;;5.53;;
24857;SDS011;12935;50.782;6.074;2023-03-31T03:37:33;22.83;;;5.43;;
24857;SDS011;12935;50.782;6.074;2023-03-31T03:39:59;18.97;;;4.50;;
24857;SDS011;12935;50.782;6.074;2023-03-31T03:42:24;24.90;;;6.13;;
24857;SDS011;12935;50.782;6.074;2023-03-31T03:44:49;50.27;;;8.40;;
24857;SDS011;12935;50.782;6.074;2023-03-31T03:47:15;17.43;;;4.77;;
24857;SDS011;12935;50.782;6.074;2023-03-31T03:49:40;18.57;;;4.80;;
24857;SDS011;12935;50.782;6.074;2023-03-31T03:52:05;50.37;;;6.80;;
24857;SDS011;12935;50.782;6.074;2023-03-31T03:54:31;31.70;;;6.53;;
24857;SDS011;12935;50.782;6.074;2023-03-31T03:56:56;35.43;;;6.97;;
24857;SDS011;12935;50.782;6.074;2023-03-31T03:59:21;34.73;;;6.90;;
24857;SDS011;12935;50.782;6.074;2023-03-31T04:01:47;27.50;;;6.10;;
24857;SDS011;12935;50.782;6.074;2023-03-31T04:04:13;21.03;;;5.40;;
24857;SDS011;12935;50.782;6.074;2023-03-31T04:06:38;21.57;;;5.27;;
24857;SDS011;12935;50.782;6.074;2023-03-31T04:09:04;15.40;;;4.77;;
24857;SDS011;12935;50.782;6.074;2023-03-31T04:11:29;23.03;;;5.53;;
24857;SDS011;12935;50.782;6.074;2023-03-31T04:13:55;28.40;;;5.97;;
24857;SDS011;12935;50.782;6.074;2023-03-31T04:16:20;22.70;;;6.70;;
24857;SDS011;12935;50.782;6.074;2023-03-31T04:18:47;21.50;;;5.33;;
24857;SDS011;12935;50.782;6.074;2023-03-31T04:21:12;24.90;;;5.77;;
24857;SDS011;12935;50.782;6.074;2023-03-31T04:23:47;16.88;;;4.82;;
24857;SDS011;12935;50.782;6.074;2023-03-31T04:26:14;18.33;;;4.80;;
24857;SDS011;12935;50.782;6.074;2023-03-31T04:28:41;20.10;;;5.20;;
24857;SDS011;12935;50.782;6.074;2023-03-31T04:31:11;18.60;;;4.90;;
24857;SDS011;12935;50.782;6.074;2023-03-31T04:33:49;15.75;;;4.53;;
24857;SDS011;12935;50.782;6.074;2023-03-31T04:36:17;22.80;;;5.60;;
24857;SDS011;12935;50.782;6.074;2023-03-31T04:38:43;23.00;;;5.47;;
24857;SDS011;12935;50.782;6.074;2023-03-31T04:41:14;19.00;;;5.10;;
24857;SDS011;12935;50.782;6.074;2023-03-31T04:43:41;19.73;;;4.73;;
24857;SDS011;12935;50.782;6.074;2023-03-31T04:46:06;22.67;;;5.43;;
24857;SDS011;12935;50.782;6.074;2023-03-31T04:48:32;14.00;;;4.87;;
24857;SDS011;12935;50.782;6.074;2023-03-31T04:50:57;22.03;;;5.57;;
24857;SDS011;12935;50.782;6.074;2023-03-31T04:53:22;24.33;;;5.63;;
24857;SDS011;12935;50.782;6.074;2023-03-31T04:55:48;27.90;;;5.90;;
24857;SDS011;12935;50.782;6.074;2023-03-31T04:58:14;27.80;;;5.97;;
24857;SDS011;12935;50.782;6.074;2023-03-31T05:00:40;36.67;;;7.10;;
24857;SDS011;12935;50.782;6.074;2023-03-31T05:03:05;21.97;;;5.33;;
24857;SDS011;12935;50.782;6.074;2023-03-31T05:05:31;37.97;;;7.23;;
24857;SDS011;12935;50.782;6.074;2023-03-31T05:07:57;22.97;;;5.40;;
24857;SDS011;12935;50.782;6.074;2023-03-31T05:10:22;44.53;;;6.27;;
24857;SDS011;12935;50.782;6.074;2023-03-31T05:12:48;19.50;;;5.13;;
24857;SDS011;12935;50.782;6.074;2023-03-31T05:15:13;22.50;;;5.60;;
24857;SDS011;12935;50.782;6.074;2023-03-31T05:17:39;29.17;;;6.10;;
24857;SDS011;12935;50.782;6.074;2023-03-31T05:20:04;26.53;;;5.90;;
24857;SDS011;12935;50.782;6.074;2023-03-31T05:22:33;12.10;;;4.40;;
24857;SDS011;12935;50.782;6.074;2023-03-31T05:24:59;23.57;;;5.30;;
24857;SDS011;12935;50.782;6.074;2023-03-31T05:27:25;33.83;;;6.67;;
24857;SDS011;12935;50.782;6.074;2023-03-31T05:29:50;29.17;;;6.10;;
24857;SDS011;12935;50.782;6.074;2023-03-31T05:32:15;24.87;;;5.70;;
24857;SDS011;12935;50.782;6.074;2023-03-31T05:34:41;39.67;;;7.10;;
24857;SDS011;12935;50.782;6.074;2023-03-31T05:37:07;29.43;;;7.27;;
24857;SDS011;12935;50.782;6.074;2023-03-31T05:39:32;21.43;;;5.40;;
24857;SDS011;12935;50.782;6.074;2023-03-31T05:41:58;22.50;;;5.20;;
24857;SDS011;12935;50.782;6.074;2023-03-31T05:44:24;25.53;;;5.43;;
24857;SDS011;12935;50.782;6.074;2023-03-31T05:46:51;19.20;;;5.20;;
24857;SDS011;12935;50.782;6.074;2023-03-31T05:49:16;26.43;;;5.90;;
24857;SDS011;12935;50.782;6.074;2023-03-31T05:51:42;31.50;;;6.13;;
24857;SDS011;12935;50.782;6.074;2023-03-31T05:54:07;17.57;;;4.90;;
24857;SDS011;12935;50.782;6.074;2023-03-31T05:56:32;13.40;;;4.33;;
24857;SDS011;12935;50.782;6.074;2023-03-31T05:58:58;21.10;;;5.97;;
24857;SDS011;12935;50.782;6.074;2023-03-31T06:01:25;20.00;;;5.30;;
24857;SDS011;12935;50.782;6.074;2023-03-31T06:03:50;23.83;;;5.57;;
24857;SDS011;12935;50.782;6.074;2023-03-31T06:06:16;29.30;;;6.67;;
24857;SDS011;12935;50.782;6.074;2023-03-31T06:08:42;22.03;;;5.63;;
24857;SDS011;12935;50.782;6.074;2023-03-31T06:11:10;20.27;;;5.40;;
24857;SDS011;12935;50.782;6.074;2023-03-31T06:13:38;20.43;;;5.40;;
24857;SDS011;12935;50.782;6.074;2023-03-31T06:16:04;17.13;;;4.80;;
24857;SDS011;12935;50.782;6.074;2023-03-31T06:18:30;19.43;;;5.17;;
24857;SDS011;12935;50.782;6.074;2023-03-31T06:20:57;29.63;;;6.20;;
24857;SDS011;12935;50.782;6.074;2023-03-31T06:23:23;29.47;;;7.07;;
24857;SDS011;12935;50.782;6.074;2023-03-31T06:25:50;38.80;;;7.53;;
24857;SDS011;12935;50.782;6.074;2023-03-31T06:28:15;20.87;;;5.60;;
24857;SDS011;12935;50.782;6.074;2023-03-31T06:30:41;23.77;;;5.80;;
24857;SDS011;12935;50.782;6.074;2023-03-31T06:33:06;20.93;;;5.17;;
24857;SDS011;12935;50.782;6.074;2023-03-31T06:35:32;16.30;;;4.90;;
24857;SDS011;12935;50.782;6.074;2023-03-31T06:37:57;28.93;;;6.27;;
24857;SDS011;12935;50.782;6.074;2023-03-31T06:40:23;39.17;;;7.30;;
24857;SDS011;12935;50.782;6.074;2023-03-31T06:42:48;20.17;;;5.27;;
24857;SDS011;12935;50.782;6.074;2023-03-31T06:45:13;43.23;;;6.47;;
24857;SDS011;12935;50.782;6.074;2023-03-31T06:47:39;15.67;;;4.70;;
24857;SDS011;12935;50.782;6.074;2023-03-31T06:50:06;29.17;;;6.60;;
24857;SDS011;12935;50.782;6.074;2023-03-31T06:52:33;28.10;;;6.40;;
24857;SDS011;12935;50.782;6.074;2023-03-31T06:54:58;30.17;;;6.60;;
24857;SDS011;12935;50.782;6.074;2023-03-31T06:57:24;36.43;;;7.70;;
24857;SDS011;12935;50.782;6.074;2023-03-31T06:59:50;26.80;;;6.63;;
24857;SDS011;12935;50.782;6.074;2023-03-31T07:02:15;15.93;;;5.30;;
24857;SDS011;12935;50.782;6.074;2023-03-31T07:04:40;32.83;;;7.70;;
24857;SDS011;12935;50.782;6.074;2023-03-31T07:07:06;36.80;;;8.27;;
24857;SDS011;12935;50.782;6.074;2023-03-31T07:09:31;42.27;;;8.57;;
24857;SDS011;12935;50.782;6.074;2023-03-31T07:11:56;28.40;;;6.90;;
24857;SDS011;12935;50.782;6.074;2023-03-31T07:14:22;29.60;;;6.60;;
24857;SDS011;12935;50.782;6.074;2023-03-31T07:16:47;27.00;;;6.23;;
24857;SDS011;12935;50.782;6.074;2023-03-31T07:19:14;38.20;;;7.13;;
24857;SDS011;12935;50.782;6.074;2023-03-31T07:21:40;29.53;;;6.53;;
24857;SDS011;12935;50.782;6.074;2023-03-31T07:24:05;29.63;;;6.70;;
24857;SDS011;12935;50.782;6.074;2023-03-31T07:26:30;33.47;;;7.30;;
24857;SDS011;12935;50.782;6.074;2023-03-31T07:28:55;25.20;;;6.63;;
24857;SDS011;12935;50.782;6.074;2023-03-31T07:31:21;27.50;;;6.90;;
24857;SDS011;12935;50.782;6.074;2023-03-31T07:33:47;24.37;;;6.47;;
24857;SDS011;12935;50.782;6.074;2023-03-31T07:36:12;22.27;;;6.00;;
24857;SDS011;12935;50.782;6.074;2023-03-31T07:38:37;35.07;;;7.53;;
24857;SDS011;12935;50.782;6.074;2023-03-31T07:41:03;26.83;;;6.77;;
24857;SDS011;12935;50.782;6.074;2023-03-31T07:43:28;54.17;;;9.67;;
24857;SDS011;12935;50.782;6.074;2023-03-31T07:45:54;20.03;;;5.93;;
24857;SDS011;12935;50.782;6.074;2023-03-31T07:48:19;31.67;;;6.83;;
24857;SDS011;12935;50.782;6.074;2023-03-31T07:50:44;26.20;;;6.60;;
24857;SDS011;12935;50.782;6.074;2023-03-31T07:53:10;21.87;;;7.83;;
24857;SDS011;12935;50.782;6.074;2023-03-31T07:55:36;23.83;;;6.33;;
24857;SDS011;12935;50.782;6.074;2023-03-31T07:58:01;32.67;;;8.10;;
24857;SDS011;12935;50.782;6.074;2023-03-31T08:00:26;40.17;;;8.60;;
24857;SDS011;12935;50.782;6.074;2023-03-31T08:02:52;24.07;;;6.80;;
24857;SDS011;12935;50.782;6.074;2023-03-31T08:05:17;20.50;;;7.30;;
24857;SDS011;12935;50.782;6.074;2023-03-31T08:07:45;64.83;;;10.77;;
24857;SDS011;12935;50.782;6.074;2023-03-31T08:10:19;24.23;;;6.43;;
24857;SDS011;12935;50.782;6.074;2023-03-31T08:12:46;58.33;;;10.73;;
24857;SDS011;12935;50.782;6.074;2023-03-31T08:15:12;46.83;;;9.13;;
24857;SDS011;12935;50.782;6.074;2023-03-31T08:17:38;41.50;;;8.70;;
24857;SDS011;12935;50.782;6.074;2023-03-31T08:20:03;20.30;;;6.87;;
24857;SDS011;12935;50.782;6.074;2023-03-31T08:22:38;41.20;;;8.60;;
24857;SDS011;12935;50.782;6.074;2023-03-31T08:25:05;20.47;;;8.40;;
24857;SDS011;12935;50.782;6.074;2023-03-31T08:27:32;59.37;;;10.53;;
24857;SDS011;12935;50.782;6.074;2023-03-31T08:29:59;45.13;;;9.83;;
24857;SDS011;12935;50.782;6.074;2023-03-31T08:32:28;39.33;;;8.87;;
24857;SDS011;12935;50.782;6.074;2023-03-31T08:34:54;25.60;;;7.73;;
24857;SDS011;12935;50.782;6.074;2023-03-31T08:37:19;37.53;;;8.37;;
24857;SDS011;12935;50.782;6.074;2023-03-31T08:39:44;44.60;;;9.00;;
24857;SDS011;12935;50.782;6.074;2023-03-31T08:42:11;33.93;;;8.57;;
24857;SDS011;12935;50.782;6.074;2023-03-31T08:44:44;24.27;;;7.00;;
24857;SDS011;12935;50.782;6.074;2023-03-31T08:47:22;33.27;;;8.53;;
24857;SDS011;12935;50.782;6.074;2023-03-31T08:49:52;24.97;;;7.23;;
24857;SDS011;12935;50.782;6.074;2023-03-31T08:52:23;32.83;;;8.73;;
24857;SDS011;12935;50.782;6.074;2023-03-31T08:54:57;26.73;;;7.60;;
24857;SDS011;12935;50.782;6.074;2023-03-31T08:57:27;22.73;;;7.00;;
24857;SDS011;12935;50.782;6.074;2023-03-31T09:00:00;48.40;;;10.40;;
24857;SDS011;12935;50.782;6.074;2023-03-31T09:06:01;24.17;;;6.40;;
24857;SDS011;12935;50.782;6.074;2023-03-31T09:11:43;33.23;;;9.00;;
24857;SDS011;12935;50.782;6.074;2023-03-31T09:16:47;45.57;;;9.83;;
24857;SDS011;12935;50.782;6.074;2023-03-31T09:19:40;129.93;;;20.90;;
24857;SDS011;12935;50.782;6.074;2023-03-31T09:22:34;33.20;;;8.47;;
24857;SDS011;12935;50.782;6.074;2023-03-31T09:27:35;32.17;;;9.47;;
24857;SDS011;12935;50.782;6.074;2023-03-31T09:30:09;58.70;;;11.90;;
24857;SDS011;12935;50.782;6.074;2023-03-31T09:32:40;35.03;;;9.17;;
24857;SDS011;12935;50.782;6.074;2023-03-31T09:35:16;52.47;;;10.07;;
24857;SDS011;12935;50.782;6.074;2023-03-31T09:37:43;37.00;;;9.07;;
24857;SDS011;12935;50.782;6.074;2023-03-31T09:40:15;26.37;;;8.10;;
24857;SDS011;12935;50.782;6.074;2023-03-31T09:42:44;26.60;;;8.37;;
24857;SDS011;12935;50.782;6.074;2023-03-31T09:45:15;36.40;;;8.93;;
24857;SDS011;12935;50.782;6.074;2023-03-31T09:47:43;35.73;;;8.70;;
24857;SDS011;12935;50.782;6.074;2023-03-31T09:50:11;32.23;;;8.53;;
24857;SDS011;12935;50.782;6.074;2023-03-31T09:52:38;35.80;;;9.40;;
24857;SDS011;12935;50.782;6.074;2023-03-31T09:55:09;37.80;;;8.87;;
24857;SDS011;12935;50.782;6.074;2023-03-31T09:57:42;32.87;;;9.27;;
24857;SDS011;12935;50.782;6.074;2023-03-31T10:02:49;25.60;;;7.70;;
24857;SDS011;12935;50.782;6.074;2023-03-31T10:10:42;39.53;;;7.80;;
24857;SDS011;12935;50.782;6.074;2023-03-31T10:13:10;31.73;;;8.03;;
24857;SDS011;12935;50.782;6.074;2023-03-31T10:15:40;44.60;;;10.90;;
24857;SDS011;12935;50.782;6.074;2023-03-31T10:18:05;29.27;;;8.00;;
24857;SDS011;12935;50.782;6.074;2023-03-31T10:20:37;25.53;;;7.47;;
24857;SDS011;12935;50.782;6.074;2023-03-31T10:23:23;31.63;;;8.30;;
24857;SDS011;12935;50.782;6.074;2023-03-31T10:25:52;34.07;;;8.73;;
24857;SDS011;12935;50.782;6.074;2023-03-31T10:28:18;27.37;;;7.77;;
24857;SDS011;12935;50.782;6.074;2023-03-31T10:30:46;15.30;;;5.60;;
24857;SDS011;12935;50.782;6.074;2023-03-31T10:33:25;25.87;;;7.80;;
24857;SDS011;12935;50.782;6.074;2023-03-31T10:36:06;28.50;;;7.47;;
24857;SDS011;12935;50.782;6.074;2023-03-31T10:38:41;21.10;;;6.43;;
24857;SDS011;12935;50.782;6.074;2023-03-31T10:41:10;36.70;;;8.57;;
24857;SDS011;12935;50.782;6.074;2023-03-31T10:43:37;30.97;;;7.80;;
24857;SDS011;12935;50.782;6.074;2023-03-31T10:46:05;31.10;;;7.97;;
24857;SDS011;12935;50.782;6.074;2023-03-31T10:48:32;35.53;;;8.10;;
24857;SDS011;12935;50.782;6.074;2023-03-31T10:53:45;41.80;;;8.90;;
24857;SDS011;12935;50.782;6.074;2023-03-31T10:56:28;26.67;;;7.60;;
24857;SDS011;12935;50.782;6.074;2023-03-31T11:01:58;22.10;;;8.13;;
24857;SDS011;12935;50.782;6.074;2023-03-31T11:07:34;47.20;;;10.97;;
24857;SDS011;12935;50.782;6.074;2023-03-31T11:12:41;28.70;;;8.27;;
24857;SDS011;12935;50.782;6.074;2023-03-31T11:15:30;37.80;;;8.70;;
24857;SDS011;12935;50.782;6.074;2023-03-31T11:23:43;26.80;;;9.00;;
24857;SDS011;12935;50.782;6.074;2023-03-31T11:26:20;46.20;;;10.27;;
24857;SDS011;12935;50.782;6.074;2023-03-31T11:31:43;50.80;;;12.17;;
24857;SDS011;12935;50.782;6.074;2023-03-31T11:42:32;44.10;;;10.40;;
24857;SDS011;12935;50.782;6.074;2023-03-31T11:45:04;29.67;;;8.40;;
24857;SDS011;12935;50.782;6.074;2023-03-31T11:47:39;33.50;;;8.93;;
24857;SDS011;12935;50.782;6.074;2023-03-31T11:50:11;18.00;;;6.87;;
24857;SDS011;12935;50.782;6.074;2023-03-31T11:52:42;21.87;;;8.63;;
24857;SDS011;12935;50.782;6.074;2023-03-31T11:55:15;26.53;;;8.47;;
24857;SDS011;12935;50.782;6.074;2023-03-31T11:57:47;35.07;;;9.10;;
24857;SDS011;12935;50.782;6.074;2023-03-31T12:00:24;40.50;;;9.93;;
24857;SDS011;12935;50.782;6.074;2023-03-31T12:02:54;35.97;;;9.60;;
24857;SDS011;12935;50.782;6.074;2023-03-31T12:05:32;26.03;;;8.77;;
24857;SDS011;12935;50.782;6.074;2023-03-31T12:08:02;34.43;;;9.27;;
24857;SDS011;12935;50.782;6.074;2023-03-31T12:10:35;65.93;;;13.07;;
24857;SDS011;12935;50.782;6.074;2023-03-31T12:13:05;44.07;;;10.40;;
24857;SDS011;12935;50.782;6.074;2023-03-31T12:16:00;32.77;;;9.40;;
24857;SDS011;12935;50.782;6.074;2023-03-31T12:18:29;91.10;;;12.63;;
24857;SDS011;12935;50.782;6.074;2023-03-31T12:21:03;45.10;;;10.30;;
24857;SDS011;12935;50.782;6.074;2023-03-31T12:23:30;25.67;;;8.10;;
24857;SDS011;12935;50.782;6.074;2023-03-31T12:26:05;34.27;;;10.20;;
24857;SDS011;12935;50.782;6.074;2023-03-31T12:28:47;24.43;;;8.70;;
24857;SDS011;12935;50.782;6.074;2023-03-31T12:31:19;23.80;;;8.07;;
24857;SDS011;12935;50.782;6.074;2023-03-31T12:33:53;26.17;;;8.33;;
24857;SDS011;12935;50.782;6.074;2023-03-31T12:39:06;39.33;;;9.93;;
24857;SDS011;12935;50.782;6.074;2023-03-31T12:41:46;21.07;;;8.33;;
24857;SDS011;12935;50.782;6.074;2023-03-31T12:50:21;32.57;;;10.93;;
24857;SDS011;12935;50.782;6.074;2023-03-31T12:52:57;26.67;;;10.00;;
24857;SDS011;12935;50.782;6.074;2023-03-31T12:58:30;35.07;;;10.90;;
24857;SDS011;12935;50.782;6.074;2023-03-31T13:06:47;23.33;;;9.57;;
24857;SDS011;12935;50.782;6.074;2023-03-31T13:11:43;37.60;;;9.20;;
24857;SDS011;12935;50.782;6.074;2023-03-31T13:16:40;36.00;;;9.80;;
24857;SDS011;12935;50.782;6.074;2023-03-31T13:19:06;35.00;;;9.97;;
24857;SDS011;12935;50.782;6.074;2023-03-31T13:24:20;36.30;;;10.20;;
24857;SDS011;12935;50.782;6.074;2023-03-31T13:26:47;23.33;;;8.47;;
24857;SDS011;12935;50.782;6.074;2023-03-31T13:34:34;23.77;;;11.03;;
24857;SDS011;12935;50.782;6.074;2023-03-31T13:45:21;24.50;;;9.40;;
24857;SDS011;12935;50.782;6.074;2023-03-31T13:48:01;34.37;;;10.20;;
24857;SDS011;12935;50.782;6.074;2023-03-31T13:51:08;26.50;;;8.73;;
24857;SDS011;12935;50.782;6.074;2023-03-31T13:56:24;32.80;;;9.37;;
24857;SDS011;12935;50.782;6.074;2023-03-31T13:58:57;28.80;;;9.07;;
24857;SDS011;12935;50.782;6.074;2023-03-31T14:07:22;26.17;;;9.27;;
24857;SDS011;12935;50.782;6.074;2023-03-31T14:09:55;24.43;;;9.07;;
24857;SDS011;12935;50.782;6.074;2023-03-31T14:12:30;39.00;;;10.60;;
24857;SDS011;12935;50.782;6.074;2023-03-31T14:15:01;33.50;;;10.47;;
24857;SDS011;12935;50.782;6.074;2023-03-31T14:17:28;37.50;;;10.87;;
24857;SDS011;12935;50.782;6.074;2023-03-31T14:19:58;27.33;;;9.70;;
24857;SDS011;12935;50.782;6.074;2023-03-31T14:25:11;20.97;;;8.23;;
24857;SDS011;12935;50.782;6.074;2023-03-31T14:30:38;22.57;;;8.77;;
24857;SDS011;12935;50.782;6.074;2023-03-31T14:33:25;33.83;;;9.53;;
24857;SDS011;12935;50.782;6.074;2023-03-31T14:38:37;29.67;;;8.53;;
24857;SDS011;12935;50.782;6.074;2023-03-31T14:41:02;35.60;;;9.27;;
24857;SDS011;12935;50.782;6.074;2023-03-31T14:43:29;25.97;;;7.90;;
24857;SDS011;12935;50.782;6.074;2023-03-31T14:46:04;31.90;;;8.60;;
24857;SDS011;12935;50.782;6.074;2023-03-31T14:48:32;27.10;;;8.27;;
24857;SDS011;12935;50.782;6.074;2023-03-31T14:51:00;33.90;;;8.20;;
24857;SDS011;12935;50.782;6.074;2023-03-31T14:53:27;25.87;;;7.90;;
24857;SDS011;12935;50.782;6.074;2023-03-31T14:55:56;37.23;;;8.80;;
24857;SDS011;12935;50.782;6.074;2023-03-31T14:58:36;28.27;;;7.73;;
24857;SDS011;12935;50.782;6.074;2023-03-31T15:01:06;15.97;;;6.63;;
24857;SDS011;12935;50.782;6.074;2023-03-31T15:03:34;22.97;;;7.40;;
24857;SDS011;12935;50.782;6.074;2023-03-31T15:06:05;21.53;;;7.97;;
24857;SDS011;12935;50.782;6.074;2023-03-31T15:08:31;27.43;;;8.10;;
24857;SDS011;12935;50.782;6.074;2023-03-31T15:10:59;23.73;;;7.03;;
24857;SDS011;12935;50.782;6.074;2023-03-31T15:16:19;32.20;;;7.90;;
24857;SDS011;12935;50.782;6.074;2023-03-31T15:18:44;18.87;;;6.50;;
24857;SDS011;12935;50.782;6.074;2023-03-31T15:21:18;24.40;;;6.80;;
24857;SDS011;12935;50.782;6.074;2023-03-31T15:23:44;57.90;;;9.90;;
24857;SDS011;12935;50.782;6.074;2023-03-31T15:26:10;22.90;;;6.80;;
24857;SDS011;12935;50.782;6.074;2023-03-31T15:28:42;26.87;;;7.17;;
24857;SDS011;12935;50.782;6.074;2023-03-31T15:31:14;25.17;;;6.63;;
24857;SDS011;12935;50.782;6.074;2023-03-31T15:33:40;31.37;;;7.53;;
24857;SDS011;12935;50.782;6.074;2023-03-31T15:36:06;32.80;;;7.37;;
24857;SDS011;12935;50.782;6.074;2023-03-31T15:38:32;22.87;;;6.50;;
24857;SDS011;12935;50.782;6.074;2023-03-31T15:40:58;36.77;;;7.50;;
24857;SDS011;12935;50.782;6.074;2023-03-31T15:43:31;24.57;;;6.70;;
24857;SDS011;12935;50.782;6.074;2023-03-31T15:46:19;33.53;;;7.73;;
24857;SDS011;12935;50.782;6.074;2023-03-31T15:48:50;23.57;;;6.87;;
24857;SDS011;12935;50.782;6.074;2023-03-31T15:51:18;28.10;;;7.37;;
24857;SDS011;12935;50.782;6.074;2023-03-31T15:53:49;22.33;;;6.50;;
24857;SDS011;12935;50.782;6.074;2023-03-31T15:56:30;19.37;;;5.97;;
24857;SDS011;12935;50.782;6.074;2023-03-31T15:59:22;31.70;;;7.70;;
24857;SDS011;12935;50.782;6.074;2023-03-31T16:01:48;19.00;;;6.50;;
24857;SDS011;12935;50.782;6.074;2023-03-31T16:04:15;33.43;;;7.13;;
24857;SDS011;12935;50.782;6.074;2023-03-31T16:09:18;32.63;;;7.40;;
24857;SDS011;12935;50.782;6.074;2023-03-31T16:11:50;22.27;;;6.63;;
24857;SDS011;12935;50.782;6.074;2023-03-31T16:14:19;18.27;;;5.63;;
24857;SDS011;12935;50.782;6.074;2023-03-31T16:16:56;22.60;;;6.47;;
24857;SDS011;12935;50.782;6.074;2023-03-31T16:19:26;25.43;;;6.63;;
24857;SDS011;12935;50.782;6.074;2023-03-31T16:21:56;23.40;;;6.70;;
24857;SDS011;12935;50.782;6.074;2023-03-31T16:24:29;25.53;;;6.60;;
24857;SDS011;12935;50.782;6.074;2023-03-31T16:26:57;15.13;;;4.77;;
24857;SDS011;12935;50.782;6.074;2023-03-31T16:29:24;23.87;;;6.70;;
24857;SDS011;12935;50.782;6.074;2023-03-31T16:31:50;23.30;;;6.23;;
24857;SDS011;12935;50.782;6.074;2023-03-31T16:34:50;44.57;;;7.70;;
24857;SDS011;12935;50.782;6.074;2023-03-31T16:37:16;26.20;;;6.13;;
24857;SDS011;12935;50.782;6.074;2023-03-31T16:39:41;40.43;;;7.63;;
24857;SDS011;12935;50.782;6.074;2023-03-31T16:42:06;20.10;;;5.97;;
24857;SDS011;12935;50.782;6.074;2023-03-31T16:44:32;20.67;;;5.93;;
24857;SDS011;12935;50.782;6.074;2023-03-31T16:46:57;32.70;;;6.87;;
24857;SDS011;12935;50.782;6.074;2023-03-31T16:49:22;21.20;;;5.93;;
24857;SDS011;12935;50.782;6.074;2023-03-31T16:51:48;31.73;;;7.20;;
24857;SDS011;12935;50.782;6.074;2023-03-31T16:54:13;19.53;;;5.60;;
24857;SDS011;12935;50.782;6.074;2023-03-31T16:56:38;26.93;;;6.43;;
24857;SDS011;12935;50.782;6.074;2023-03-31T16:59:03;19.40;;;6.23;;
24857;SDS011;12935;50.782;6.074;2023-03-31T17:01:31;19.57;;;5.40;;
24857;SDS011;12935;50.782;6.074;2023-03-31T17:03:56;33.30;;;7.27;;
24857;SDS011;12935;50.782;6.074;2023-03-31T17:06:22;30.07;;;6.87;;
24857;SDS011;12935;50.782;6.074;2023-03-31T17:08:47;39.50;;;7.77;;
24857;SDS011;12935;50.782;6.074;2023-03-31T17:11:12;19.20;;;5.57;;
24857;SDS011;12935;50.782;6.074;2023-03-31T17:13:39;26.07;;;7.30;;
24857;SDS011;12935;50.782;6.074;2023-03-31T17:16:05;27.23;;;6.67;;
24857;SDS011;12935;50.782;6.074;2023-03-31T17:18:31;26.70;;;7.07;;
24857;SDS011;12935;50.782;6.074;2023-03-31T17:21:07;25.47;;;6.87;;